sensor_id;sensor_type;location;lat;lon;timestamp;P1;durP1;ratioP1;P2;durP2;ratioP2
43857;SDS011;29507;51.284;5.758;2023-07-13T00:01:46;4.55;;;1.00;;
43857;SDS011;29507;51.284;5.758;2023-07-13T00:04:14;2.53;;;0.87;;
43857;SDS011;29507;51.284;5.758;2023-07-13T00:06:41;2.58;;;0.70;;
43857;SDS011;29507;51.284;5.758;2023-07-13T00:09:09;5.53;;;1.08;;
43857;SDS011;29507;51.284;5.758;2023-07-13T00:11:37;4.32;;;1.05;;
43857;SDS011;29507;51.284;5.758;2023-07-13T00:14:03;3.58;;;0.85;;
43857;SDS011;29507;51.284;5.758;2023-07-13T00:16:28;7.43;;;1.65;;
43857;SDS011;29507;51.284;5.758;2023-07-13T00:18:54;2.63;;;0.70;;
43857;SDS011;29507;51.284;5.758;2023-07-13T00:21:20;3.25;;;0.80;;
43857;SDS011;29507;51.284;5.758;2023-07-13T00:23:45;8.05;;;1.85;;
43857;SDS011;29507;51.284;5.758;2023-07-13T00:26:11;4.55;;;1.00;;
43857;SDS011;29507;51.284;5.758;2023-07-13T00:28:38;3.47;;;0.75;;
43857;SDS011;29507;51.284;5.758;2023-07-13T00:31:04;4.55;;;1.20;;
43857;SDS011;29507;51.284;5.758;2023-07-13T00:33:30;3.60;;;0.98;;
43857;SDS011;29507;51.284;5.758;2023-07-13T00:35:58;4.32;;;0.90;;
43857;SDS011;29507;51.284;5.758;2023-07-13T00:38:23;4.40;;;0.90;;
43857;SDS011;29507;51.284;5.758;2023-07-13T00:40:49;4.57;;;1.30;;
43857;SDS011;29507;51.284;5.758;2023-07-13T00:43:16;4.15;;;0.90;;
43857;SDS011;29507;51.284;5.758;2023-07-13T00:48:14;2.95;;;0.90;;
43857;SDS011;29507;51.284;5.758;2023-07-13T00:50:43;3.22;;;0.70;;
43857;SDS011;29507;51.284;5.758;2023-07-13T00:53:11;8.43;;;1.35;;
43857;SDS011;29507;51.284;5.758;2023-07-13T00:55:38;3.47;;;0.88;;
43857;SDS011;29507;51.284;5.758;2023-07-13T00:58:05;3.95;;;0.98;;
43857;SDS011;29507;51.284;5.758;2023-07-13T01:00:31;3.70;;;0.82;;
43857;SDS011;29507;51.284;5.758;2023-07-13T01:03:00;7.53;;;1.17;;
43857;SDS011;29507;51.284;5.758;2023-07-13T01:07:56;3.92;;;0.93;;
43857;SDS011;29507;51.284;5.758;2023-07-13T01:10:24;2.70;;;0.77;;
43857;SDS011;29507;51.284;5.758;2023-07-13T01:12:50;3.80;;;1.02;;
43857;SDS011;29507;51.284;5.758;2023-07-13T01:18:10;6.03;;;1.23;;
43857;SDS011;29507;51.284;5.758;2023-07-13T01:20:38;3.08;;;0.88;;
43857;SDS011;29507;51.284;5.758;2023-07-13T01:23:09;3.50;;;1.00;;
43857;SDS011;29507;51.284;5.758;2023-07-13T01:25:36;4.40;;;0.90;;
43857;SDS011;29507;51.284;5.758;2023-07-13T01:28:03;5.63;;;1.17;;
43857;SDS011;29507;51.284;5.758;2023-07-13T01:30:30;9.15;;;2.13;;
43857;SDS011;29507;51.284;5.758;2023-07-13T01:32:57;3.88;;;0.85;;
43857;SDS011;29507;51.284;5.758;2023-07-13T01:35:23;8.15;;;1.00;;
43857;SDS011;29507;51.284;5.758;2023-07-13T01:37:50;7.40;;;1.00;;
43857;SDS011;29507;51.284;5.758;2023-07-13T01:40:16;3.38;;;1.10;;
43857;SDS011;29507;51.284;5.758;2023-07-13T01:42:42;4.88;;;1.40;;
43857;SDS011;29507;51.284;5.758;2023-07-13T01:45:07;7.15;;;1.08;;
43857;SDS011;29507;51.284;5.758;2023-07-13T01:47:33;2.42;;;0.90;;
43857;SDS011;29507;51.284;5.758;2023-07-13T01:49:59;5.80;;;0.85;;
43857;SDS011;29507;51.284;5.758;2023-07-13T01:52:25;4.88;;;1.17;;
43857;SDS011;29507;51.284;5.758;2023-07-13T01:54:50;3.72;;;1.23;;
43857;SDS011;29507;51.284;5.758;2023-07-13T01:57:16;5.70;;;1.20;;
43857;SDS011;29507;51.284;5.758;2023-07-13T01:59:42;5.88;;;1.73;;
43857;SDS011;29507;51.284;5.758;2023-07-13T02:02:07;6.60;;;1.33;;
43857;SDS011;29507;51.284;5.758;2023-07-13T02:04:33;5.05;;;1.27;;
43857;SDS011;29507;51.284;5.758;2023-07-13T02:06:59;1.83;;;0.70;;
43857;SDS011;29507;51.284;5.758;2023-07-13T02:09:25;6.53;;;1.15;;
43857;SDS011;29507;51.284;5.758;2023-07-13T02:11:50;5.38;;;1.60;;
43857;SDS011;29507;51.284;5.758;2023-07-13T02:14:16;7.63;;;1.45;;
43857;SDS011;29507;51.284;5.758;2023-07-13T02:16:42;8.57;;;1.98;;
43857;SDS011;29507;51.284;5.758;2023-07-13T02:19:07;4.97;;;1.13;;
43857;SDS011;29507;51.284;5.758;2023-07-13T02:21:33;5.53;;;1.10;;
43857;SDS011;29507;51.284;5.758;2023-07-13T02:23:59;2.42;;;0.98;;
43857;SDS011;29507;51.284;5.758;2023-07-13T02:26:25;5.00;;;1.30;;
43857;SDS011;29507;51.284;5.758;2023-07-13T02:28:51;6.70;;;1.38;;
43857;SDS011;29507;51.284;5.758;2023-07-13T02:31:17;3.28;;;1.02;;
43857;SDS011;29507;51.284;5.758;2023-07-13T02:33:43;5.38;;;0.90;;
43857;SDS011;29507;51.284;5.758;2023-07-13T02:36:08;5.45;;;1.20;;
43857;SDS011;29507;51.284;5.758;2023-07-13T02:38:34;4.68;;;1.10;;
43857;SDS011;29507;51.284;5.758;2023-07-13T02:41:04;3.25;;;1.05;;
43857;SDS011;29507;51.284;5.758;2023-07-13T02:43:31;3.20;;;0.98;;
43857;SDS011;29507;51.284;5.758;2023-07-13T02:45:58;9.80;;;1.58;;
43857;SDS011;29507;51.284;5.758;2023-07-13T02:48:29;4.88;;;1.20;;
43857;SDS011;29507;51.284;5.758;2023-07-13T02:50:55;6.18;;;1.77;;
43857;SDS011;29507;51.284;5.758;2023-07-13T02:53:20;7.03;;;1.05;;
43857;SDS011;29507;51.284;5.758;2023-07-13T02:55:46;6.32;;;1.13;;
43857;SDS011;29507;51.284;5.758;2023-07-13T02:58:12;5.35;;;1.48;;
43857;SDS011;29507;51.284;5.758;2023-07-13T03:03:07;7.28;;;1.20;;
43857;SDS011;29507;51.284;5.758;2023-07-13T03:05:33;7.70;;;1.70;;
43857;SDS011;29507;51.284;5.758;2023-07-13T03:07:58;5.15;;;1.77;;
43857;SDS011;29507;51.284;5.758;2023-07-13T03:10:24;6.60;;;1.48;;
43857;SDS011;29507;51.284;5.758;2023-07-13T03:12:50;5.55;;;1.10;;
43857;SDS011;29507;51.284;5.758;2023-07-13T03:15:16;6.18;;;1.10;;
43857;SDS011;29507;51.284;5.758;2023-07-13T03:17:42;5.22;;;1.23;;
43857;SDS011;29507;51.284;5.758;2023-07-13T03:20:07;6.68;;;1.70;;
43857;SDS011;29507;51.284;5.758;2023-07-13T03:22:34;4.82;;;1.10;;
43857;SDS011;29507;51.284;5.758;2023-07-13T03:24:59;7.55;;;1.77;;
43857;SDS011;29507;51.284;5.758;2023-07-13T03:27:25;5.88;;;1.33;;
43857;SDS011;29507;51.284;5.758;2023-07-13T03:29:51;6.82;;;1.52;;
43857;SDS011;29507;51.284;5.758;2023-07-13T03:32:16;2.90;;;1.10;;
43857;SDS011;29507;51.284;5.758;2023-07-13T03:34:42;6.45;;;1.30;;
43857;SDS011;29507;51.284;5.758;2023-07-13T03:37:08;7.75;;;1.45;;
43857;SDS011;29507;51.284;5.758;2023-07-13T03:39:33;5.50;;;1.58;;
43857;SDS011;29507;51.284;5.758;2023-07-13T03:41:59;6.13;;;1.70;;
43857;SDS011;29507;51.284;5.758;2023-07-13T03:44:26;9.43;;;1.40;;
43857;SDS011;29507;51.284;5.758;2023-07-13T03:46:51;7.13;;;1.60;;
43857;SDS011;29507;51.284;5.758;2023-07-13T03:49:17;4.97;;;1.58;;
43857;SDS011;29507;51.284;5.758;2023-07-13T03:51:43;7.40;;;1.50;;
43857;SDS011;29507;51.284;5.758;2023-07-13T03:54:08;8.38;;;1.90;;
43857;SDS011;29507;51.284;5.758;2023-07-13T03:56:34;6.00;;;1.52;;
43857;SDS011;29507;51.284;5.758;2023-07-13T03:59:00;6.68;;;1.85;;
43857;SDS011;29507;51.284;5.758;2023-07-13T04:01:26;14.57;;;2.08;;
43857;SDS011;29507;51.284;5.758;2023-07-13T04:03:52;6.72;;;1.63;;
43857;SDS011;29507;51.284;5.758;2023-07-13T04:06:22;4.40;;;1.55;;
43857;SDS011;29507;51.284;5.758;2023-07-13T04:08:52;8.60;;;2.17;;
43857;SDS011;29507;51.284;5.758;2023-07-13T04:11:20;4.57;;;1.80;;
43857;SDS011;29507;51.284;5.758;2023-07-13T04:13:48;8.02;;;2.13;;
43857;SDS011;29507;51.284;5.758;2023-07-13T04:16:14;6.68;;;1.73;;
43857;SDS011;29507;51.284;5.758;2023-07-13T04:18:40;5.88;;;2.40;;
43857;SDS011;29507;51.284;5.758;2023-07-13T04:21:06;8.07;;;1.75;;
43857;SDS011;29507;51.284;5.758;2023-07-13T04:23:34;8.98;;;1.73;;
43857;SDS011;29507;51.284;5.758;2023-07-13T04:26:00;9.38;;;1.92;;
43857;SDS011;29507;51.284;5.758;2023-07-13T04:28:26;5.80;;;1.60;;
43857;SDS011;29507;51.284;5.758;2023-07-13T04:30:52;5.97;;;1.50;;
43857;SDS011;29507;51.284;5.758;2023-07-13T04:33:19;5.72;;;1.27;;
43857;SDS011;29507;51.284;5.758;2023-07-13T04:35:50;7.43;;;1.73;;
43857;SDS011;29507;51.284;5.758;2023-07-13T04:38:25;14.15;;;2.42;;
43857;SDS011;29507;51.284;5.758;2023-07-13T04:40:54;14.48;;;1.77;;
43857;SDS011;29507;51.284;5.758;2023-07-13T04:43:22;6.07;;;1.50;;
43857;SDS011;29507;51.284;5.758;2023-07-13T04:45:49;7.97;;;2.38;;
43857;SDS011;29507;51.284;5.758;2023-07-13T04:48:16;10.18;;;2.00;;
43857;SDS011;29507;51.284;5.758;2023-07-13T04:50:41;5.32;;;1.80;;
43857;SDS011;29507;51.284;5.758;2023-07-13T04:53:08;7.68;;;1.67;;
43857;SDS011;29507;51.284;5.758;2023-07-13T04:55:34;7.85;;;2.85;;
43857;SDS011;29507;51.284;5.758;2023-07-13T04:57:59;10.32;;;2.65;;
43857;SDS011;29507;51.284;5.758;2023-07-13T05:00:26;6.78;;;1.80;;
43857;SDS011;29507;51.284;5.758;2023-07-13T05:02:53;8.57;;;2.10;;
43857;SDS011;29507;51.284;5.758;2023-07-13T05:05:20;7.65;;;1.83;;
43857;SDS011;29507;51.284;5.758;2023-07-13T05:07:45;8.43;;;2.50;;
43857;SDS011;29507;51.284;5.758;2023-07-13T05:10:11;6.53;;;1.80;;
43857;SDS011;29507;51.284;5.758;2023-07-13T05:12:37;8.70;;;1.40;;
43857;SDS011;29507;51.284;5.758;2023-07-13T05:15:03;4.05;;;1.58;;
43857;SDS011;29507;51.284;5.758;2023-07-13T05:17:29;4.57;;;1.88;;
43857;SDS011;29507;51.284;5.758;2023-07-13T05:19:55;5.53;;;1.77;;
43857;SDS011;29507;51.284;5.758;2023-07-13T05:22:20;6.32;;;2.03;;
43857;SDS011;29507;51.284;5.758;2023-07-13T05:24:46;8.50;;;2.30;;
43857;SDS011;29507;51.284;5.758;2023-07-13T05:27:12;7.63;;;2.00;;
43857;SDS011;29507;51.284;5.758;2023-07-13T05:29:37;12.65;;;3.13;;
43857;SDS011;29507;51.284;5.758;2023-07-13T05:32:03;7.25;;;1.90;;
43857;SDS011;29507;51.284;5.758;2023-07-13T05:34:29;14.23;;;3.08;;
43857;SDS011;29507;51.284;5.758;2023-07-13T05:36:55;8.30;;;2.22;;
43857;SDS011;29507;51.284;5.758;2023-07-13T05:39:20;8.18;;;2.28;;
43857;SDS011;29507;51.284;5.758;2023-07-13T05:41:46;8.85;;;2.35;;
43857;SDS011;29507;51.284;5.758;2023-07-13T05:44:13;8.85;;;2.10;;
43857;SDS011;29507;51.284;5.758;2023-07-13T05:46:38;7.68;;;2.38;;
43857;SDS011;29507;51.284;5.758;2023-07-13T05:49:04;8.40;;;1.90;;
43857;SDS011;29507;51.284;5.758;2023-07-13T05:51:30;13.98;;;2.63;;
43857;SDS011;29507;51.284;5.758;2023-07-13T05:53:55;21.33;;;3.55;;
43857;SDS011;29507;51.284;5.758;2023-07-13T05:56:21;7.38;;;1.80;;
43857;SDS011;29507;51.284;5.758;2023-07-13T05:58:50;8.45;;;2.05;;
43857;SDS011;29507;51.284;5.758;2023-07-13T06:01:15;7.15;;;1.90;;
43857;SDS011;29507;51.284;5.758;2023-07-13T06:03:41;9.98;;;2.17;;
43857;SDS011;29507;51.284;5.758;2023-07-13T06:06:07;10.05;;;1.85;;
43857;SDS011;29507;51.284;5.758;2023-07-13T06:08:34;8.98;;;2.40;;
43857;SDS011;29507;51.284;5.758;2023-07-13T06:13:29;10.87;;;2.47;;
43857;SDS011;29507;51.284;5.758;2023-07-13T06:15:54;6.97;;;3.03;;
43857;SDS011;29507;51.284;5.758;2023-07-13T06:18:20;7.22;;;2.15;;
43857;SDS011;29507;51.284;5.758;2023-07-13T06:20:45;9.88;;;2.45;;
43857;SDS011;29507;51.284;5.758;2023-07-13T06:23:11;8.30;;;2.30;;
43857;SDS011;29507;51.284;5.758;2023-07-13T06:25:37;9.98;;;2.83;;
43857;SDS011;29507;51.284;5.758;2023-07-13T06:28:02;11.13;;;2.95;;
43857;SDS011;29507;51.284;5.758;2023-07-13T06:30:28;9.00;;;2.50;;
43857;SDS011;29507;51.284;5.758;2023-07-13T06:32:54;8.68;;;2.88;;
43857;SDS011;29507;51.284;5.758;2023-07-13T06:35:20;8.80;;;3.15;;
43857;SDS011;29507;51.284;5.758;2023-07-13T06:37:46;11.70;;;3.30;;
43857;SDS011;29507;51.284;5.758;2023-07-13T06:40:12;11.02;;;3.45;;
43857;SDS011;29507;51.284;5.758;2023-07-13T06:42:38;13.85;;;3.00;;
43857;SDS011;29507;51.284;5.758;2023-07-13T06:45:03;11.40;;;2.88;;
43857;SDS011;29507;51.284;5.758;2023-07-13T06:47:30;14.13;;;2.97;;
43857;SDS011;29507;51.284;5.758;2023-07-13T06:49:55;15.73;;;4.75;;
43857;SDS011;29507;51.284;5.758;2023-07-13T06:52:21;17.05;;;3.08;;
43857;SDS011;29507;51.284;5.758;2023-07-13T06:54:46;9.38;;;2.78;;
43857;SDS011;29507;51.284;5.758;2023-07-13T06:57:12;12.38;;;2.75;;
43857;SDS011;29507;51.284;5.758;2023-07-13T06:59:38;16.15;;;3.47;;
43857;SDS011;29507;51.284;5.758;2023-07-13T07:02:04;14.70;;;3.28;;
43857;SDS011;29507;51.284;5.758;2023-07-13T07:04:30;15.07;;;3.63;;
43857;SDS011;29507;51.284;5.758;2023-07-13T07:06:56;12.07;;;3.83;;
43857;SDS011;29507;51.284;5.758;2023-07-13T07:09:21;11.88;;;2.60;;
43857;SDS011;29507;51.284;5.758;2023-07-13T07:11:47;15.65;;;4.20;;
43857;SDS011;29507;51.284;5.758;2023-07-13T07:14:13;13.35;;;3.60;;
43857;SDS011;29507;51.284;5.758;2023-07-13T07:16:38;10.55;;;2.42;;
43857;SDS011;29507;51.284;5.758;2023-07-13T07:19:04;17.98;;;3.58;;
43857;SDS011;29507;51.284;5.758;2023-07-13T07:21:29;10.93;;;2.33;;
43857;SDS011;29507;51.284;5.758;2023-07-13T07:23:56;16.90;;;2.90;;
43857;SDS011;29507;51.284;5.758;2023-07-13T07:26:22;11.20;;;2.67;;
43857;SDS011;29507;51.284;5.758;2023-07-13T07:28:48;10.93;;;2.97;;
43857;SDS011;29507;51.284;5.758;2023-07-13T07:31:13;13.98;;;3.45;;
43857;SDS011;29507;51.284;5.758;2023-07-13T07:33:39;13.65;;;3.05;;
43857;SDS011;29507;51.284;5.758;2023-07-13T07:36:05;11.32;;;2.72;;
43857;SDS011;29507;51.284;5.758;2023-07-13T07:38:31;9.20;;;3.20;;
43857;SDS011;29507;51.284;5.758;2023-07-13T07:40:56;8.63;;;3.13;;
43857;SDS011;29507;51.284;5.758;2023-07-13T07:43:22;12.10;;;2.53;;
43857;SDS011;29507;51.284;5.758;2023-07-13T07:45:48;11.20;;;2.80;;
43857;SDS011;29507;51.284;5.758;2023-07-13T07:48:13;7.50;;;2.60;;
43857;SDS011;29507;51.284;5.758;2023-07-13T07:50:39;7.93;;;2.72;;
43857;SDS011;29507;51.284;5.758;2023-07-13T07:53:06;9.63;;;2.28;;
43857;SDS011;29507;51.284;5.758;2023-07-13T07:55:33;6.40;;;2.40;;
43857;SDS011;29507;51.284;5.758;2023-07-13T07:58:02;13.52;;;2.60;;
43857;SDS011;29507;51.284;5.758;2023-07-13T08:00:28;12.82;;;2.65;;
43857;SDS011;29507;51.284;5.758;2023-07-13T08:02:58;8.13;;;2.80;;
43857;SDS011;29507;51.284;5.758;2023-07-13T08:05:24;9.52;;;2.78;;
43857;SDS011;29507;51.284;5.758;2023-07-13T08:07:51;8.63;;;2.08;;
43857;SDS011;29507;51.284;5.758;2023-07-13T08:10:16;5.82;;;2.10;;
43857;SDS011;29507;51.284;5.758;2023-07-13T08:12:42;7.28;;;2.17;;
43857;SDS011;29507;51.284;5.758;2023-07-13T08:15:10;10.63;;;2.53;;
43857;SDS011;29507;51.284;5.758;2023-07-13T08:20:03;6.18;;;2.38;;
43857;SDS011;29507;51.284;5.758;2023-07-13T08:22:29;9.20;;;2.45;;
43857;SDS011;29507;51.284;5.758;2023-07-13T08:24:55;12.07;;;2.25;;
43857;SDS011;29507;51.284;5.758;2023-07-13T08:27:24;9.68;;;2.00;;
43857;SDS011;29507;51.284;5.758;2023-07-13T08:29:51;11.65;;;2.67;;
43857;SDS011;29507;51.284;5.758;2023-07-13T08:32:18;11.52;;;2.65;;
43857;SDS011;29507;51.284;5.758;2023-07-13T08:34:44;7.25;;;2.53;;
43857;SDS011;29507;51.284;5.758;2023-07-13T08:37:10;7.05;;;1.90;;
43857;SDS011;29507;51.284;5.758;2023-07-13T08:39:36;10.10;;;2.13;;
43857;SDS011;29507;51.284;5.758;2023-07-13T08:42:06;12.65;;;2.40;;
43857;SDS011;29507;51.284;5.758;2023-07-13T08:47:37;8.57;;;2.40;;
43857;SDS011;29507;51.284;5.758;2023-07-13T08:50:08;5.32;;;1.85;;
43857;SDS011;29507;51.284;5.758;2023-07-13T08:52:40;5.57;;;2.08;;
43857;SDS011;29507;51.284;5.758;2023-07-13T08:55:15;11.47;;;2.50;;
43857;SDS011;29507;51.284;5.758;2023-07-13T08:58:01;8.57;;;2.10;;
43857;SDS011;29507;51.284;5.758;2023-07-13T09:00:37;8.85;;;2.10;;
43857;SDS011;29507;51.284;5.758;2023-07-13T09:03:12;7.18;;;1.95;;
43857;SDS011;29507;51.284;5.758;2023-07-13T09:05:45;5.95;;;1.95;;
43857;SDS011;29507;51.284;5.758;2023-07-13T09:08:43;9.93;;;2.15;;
43857;SDS011;29507;51.284;5.758;2023-07-13T09:16:46;8.82;;;2.13;;
43857;SDS011;29507;51.284;5.758;2023-07-13T09:19:16;8.23;;;1.52;;
43857;SDS011;29507;51.284;5.758;2023-07-13T09:21:51;7.82;;;2.17;;
43857;SDS011;29507;51.284;5.758;2023-07-13T09:26:55;5.78;;;1.40;;
43857;SDS011;29507;51.284;5.758;2023-07-13T09:29:29;7.13;;;2.05;;
43857;SDS011;29507;51.284;5.758;2023-07-13T09:32:03;5.75;;;1.50;;
43857;SDS011;29507;51.284;5.758;2023-07-13T09:34:32;7.80;;;1.73;;
43857;SDS011;29507;51.284;5.758;2023-07-13T09:36:59;7.13;;;1.38;;
43857;SDS011;29507;51.284;5.758;2023-07-13T09:39:26;6.57;;;1.67;;
43857;SDS011;29507;51.284;5.758;2023-07-13T09:41:57;6.05;;;1.92;;
43857;SDS011;29507;51.284;5.758;2023-07-13T09:44:55;6.25;;;1.85;;
43857;SDS011;29507;51.284;5.758;2023-07-13T09:47:32;5.40;;;1.38;;
43857;SDS011;29507;51.284;5.758;2023-07-13T09:50:04;6.18;;;1.40;;
43857;SDS011;29507;51.284;5.758;2023-07-13T09:52:40;5.07;;;1.60;;
43857;SDS011;29507;51.284;5.758;2023-07-13T09:55:27;6.20;;;1.58;;
43857;SDS011;29507;51.284;5.758;2023-07-13T09:57:54;5.75;;;1.70;;
43857;SDS011;29507;51.284;5.758;2023-07-13T10:00:20;9.55;;;1.52;;
43857;SDS011;29507;51.284;5.758;2023-07-13T10:03:00;4.25;;;1.58;;
43857;SDS011;29507;51.284;5.758;2023-07-13T10:05:33;5.75;;;1.45;;
43857;SDS011;29507;51.284;5.758;2023-07-13T10:08:14;6.82;;;1.55;;
43857;SDS011;29507;51.284;5.758;2023-07-13T10:10:45;8.07;;;1.90;;
43857;SDS011;29507;51.284;5.758;2023-07-13T10:13:59;5.55;;;1.27;;
43857;SDS011;29507;51.284;5.758;2023-07-13T10:16:07;5.95;;;1.65;;
43857;SDS011;29507;51.284;5.758;2023-07-13T10:18:38;4.32;;;1.00;;
43857;SDS011;29507;51.284;5.758;2023-07-13T10:21:12;5.85;;;1.38;;
43857;SDS011;29507;51.284;5.758;2023-07-13T10:23:40;3.63;;;1.10;;
43857;SDS011;29507;51.284;5.758;2023-07-13T10:26:12;5.68;;;1.85;;
43857;SDS011;29507;51.284;5.758;2023-07-13T10:28:41;6.70;;;1.58;;
43857;SDS011;29507;51.284;5.758;2023-07-13T10:31:12;9.70;;;1.65;;
43857;SDS011;29507;51.284;5.758;2023-07-13T10:33:40;5.78;;;1.27;;
43857;SDS011;29507;51.284;5.758;2023-07-13T10:39:05;5.93;;;1.63;;
43857;SDS011;29507;51.284;5.758;2023-07-13T10:41:34;7.95;;;1.48;;
43857;SDS011;29507;51.284;5.758;2023-07-13T10:44:04;8.75;;;1.55;;
43857;SDS011;29507;51.284;5.758;2023-07-13T10:46:38;5.28;;;1.33;;
43857;SDS011;29507;51.284;5.758;2023-07-13T10:49:05;4.25;;;1.23;;
43857;SDS011;29507;51.284;5.758;2023-07-13T10:51:33;3.85;;;1.40;;
43857;SDS011;29507;51.284;5.758;2023-07-13T10:56:49;3.78;;;1.13;;
43857;SDS011;29507;51.284;5.758;2023-07-13T10:59:18;4.78;;;1.50;;
43857;SDS011;29507;51.284;5.758;2023-07-13T11:02:00;6.15;;;1.25;;
43857;SDS011;29507;51.284;5.758;2023-07-13T11:04:45;3.50;;;0.80;;
43857;SDS011;29507;51.284;5.758;2023-07-13T11:07:28;4.70;;;1.50;;
43857;SDS011;29507;51.284;5.758;2023-07-13T11:09:57;4.10;;;1.33;;
43857;SDS011;29507;51.284;5.758;2023-07-13T11:15:13;4.70;;;1.25;;
43857;SDS011;29507;51.284;5.758;2023-07-13T11:17:49;4.43;;;1.00;;
43857;SDS011;29507;51.284;5.758;2023-07-13T11:22:46;3.45;;;1.20;;
43857;SDS011;29507;51.284;5.758;2023-07-13T11:27:46;2.97;;;1.10;;
43857;SDS011;29507;51.284;5.758;2023-07-13T11:33:09;5.40;;;1.40;;
43857;SDS011;29507;51.284;5.758;2023-07-13T11:36:00;4.55;;;1.52;;
43857;SDS011;29507;51.284;5.758;2023-07-13T11:40:54;4.70;;;1.35;;
43857;SDS011;29507;51.284;5.758;2023-07-13T11:43:21;5.85;;;1.52;;
43857;SDS011;29507;51.284;5.758;2023-07-13T11:45:49;4.93;;;1.30;;
43857;SDS011;29507;51.284;5.758;2023-07-13T11:48:22;10.68;;;1.75;;
43857;SDS011;29507;51.284;5.758;2023-07-13T11:51:04;7.22;;;1.65;;
43857;SDS011;29507;51.284;5.758;2023-07-13T11:53:35;4.32;;;1.55;;
43857;SDS011;29507;51.284;5.758;2023-07-13T11:56:10;5.53;;;1.85;;
43857;SDS011;29507;51.284;5.758;2023-07-13T11:58:36;4.35;;;1.58;;
43857;SDS011;29507;51.284;5.758;2023-07-13T12:01:02;4.00;;;1.13;;
43857;SDS011;29507;51.284;5.758;2023-07-13T12:03:32;5.63;;;1.70;;
43857;SDS011;29507;51.284;5.758;2023-07-13T12:06:01;5.35;;;1.90;;
43857;SDS011;29507;51.284;5.758;2023-07-13T12:08:31;4.68;;;1.27;;
43857;SDS011;29507;51.284;5.758;2023-07-13T12:11:04;4.65;;;1.55;;
43857;SDS011;29507;51.284;5.758;2023-07-13T12:13:34;5.60;;;1.27;;
43857;SDS011;29507;51.284;5.758;2023-07-13T12:16:02;6.25;;;1.38;;
43857;SDS011;29507;51.284;5.758;2023-07-13T12:18:54;5.28;;;1.40;;
43857;SDS011;29507;51.284;5.758;2023-07-13T12:21:22;4.30;;;1.15;;
43857;SDS011;29507;51.284;5.758;2023-07-13T12:23:54;3.85;;;1.38;;
43857;SDS011;29507;51.284;5.758;2023-07-13T12:26:20;4.82;;;1.42;;
43857;SDS011;29507;51.284;5.758;2023-07-13T12:28:47;5.03;;;1.35;;
43857;SDS011;29507;51.284;5.758;2023-07-13T12:31:29;3.75;;;1.00;;
43857;SDS011;29507;51.284;5.758;2023-07-13T12:36:32;3.17;;;1.02;;
43857;SDS011;29507;51.284;5.758;2023-07-13T12:39:01;8.43;;;1.40;;
43857;SDS011;29507;51.284;5.758;2023-07-13T12:41:36;4.30;;;1.23;;
43857;SDS011;29507;51.284;5.758;2023-07-13T12:44:02;4.28;;;1.13;;
43857;SDS011;29507;51.284;5.758;2023-07-13T12:46:28;4.65;;;1.00;;
43857;SDS011;29507;51.284;5.758;2023-07-13T12:48:54;6.22;;;1.25;;
43857;SDS011;29507;51.284;5.758;2023-07-13T12:51:22;5.78;;;0.85;;
43857;SDS011;29507;51.284;5.758;2023-07-13T12:53:55;4.18;;;1.45;;
43857;SDS011;29507;51.284;5.758;2023-07-13T12:56:25;3.97;;;1.20;;
43857;SDS011;29507;51.284;5.758;2023-07-13T12:58:56;4.30;;;1.10;;
43857;SDS011;29507;51.284;5.758;2023-07-13T13:01:25;4.22;;;1.20;;
43857;SDS011;29507;51.284;5.758;2023-07-13T13:03:53;6.07;;;1.08;;
43857;SDS011;29507;51.284;5.758;2023-07-13T13:06:22;2.85;;;1.20;;
43857;SDS011;29507;51.284;5.758;2023-07-13T13:08:51;4.88;;;1.08;;
43857;SDS011;29507;51.284;5.758;2023-07-13T13:11:19;3.90;;;1.00;;
43857;SDS011;29507;51.284;5.758;2023-07-13T13:13:48;5.93;;;1.25;;
43857;SDS011;29507;51.284;5.758;2023-07-13T13:16:17;3.15;;;0.85;;
43857;SDS011;29507;51.284;5.758;2023-07-13T13:19:10;2.90;;;1.17;;
43857;SDS011;29507;51.284;5.758;2023-07-13T13:21:40;6.03;;;1.35;;
43857;SDS011;29507;51.284;5.758;2023-07-13T13:24:11;4.72;;;1.67;;
43857;SDS011;29507;51.284;5.758;2023-07-13T13:26:37;5.70;;;1.10;;
43857;SDS011;29507;51.284;5.758;2023-07-13T13:29:09;5.07;;;1.20;;
43857;SDS011;29507;51.284;5.758;2023-07-13T13:31:43;4.35;;;1.20;;
43857;SDS011;29507;51.284;5.758;2023-07-13T13:34:10;11.13;;;1.92;;
43857;SDS011;29507;51.284;5.758;2023-07-13T13:36:38;7.35;;;1.48;;
43857;SDS011;29507;51.284;5.758;2023-07-13T13:39:07;5.22;;;1.27;;
43857;SDS011;29507;51.284;5.758;2023-07-13T13:41:46;7.65;;;1.83;;
43857;SDS011;29507;51.284;5.758;2023-07-13T13:44:13;6.78;;;1.65;;
43857;SDS011;29507;51.284;5.758;2023-07-13T13:46:40;7.43;;;1.50;;
43857;SDS011;29507;51.284;5.758;2023-07-13T13:49:11;4.88;;;1.88;;
43857;SDS011;29507;51.284;5.758;2023-07-13T13:51:43;6.30;;;1.90;;
43857;SDS011;29507;51.284;5.758;2023-07-13T13:54:13;3.10;;;1.52;;
43857;SDS011;29507;51.284;5.758;2023-07-13T13:56:43;5.85;;;1.75;;
43857;SDS011;29507;51.284;5.758;2023-07-13T13:59:10;6.93;;;1.80;;
43857;SDS011;29507;51.284;5.758;2023-07-13T14:01:36;5.30;;;1.90;;
43857;SDS011;29507;51.284;5.758;2023-07-13T14:04:03;7.32;;;2.45;;
43857;SDS011;29507;51.284;5.758;2023-07-13T14:06:30;4.65;;;1.60;;
43857;SDS011;29507;51.284;5.758;2023-07-13T14:08:56;5.55;;;1.83;;
43857;SDS011;29507;51.284;5.758;2023-07-13T14:11:22;5.63;;;1.40;;
43857;SDS011;29507;51.284;5.758;2023-07-13T14:13:49;4.10;;;1.40;;
43857;SDS011;29507;51.284;5.758;2023-07-13T14:16:28;4.03;;;1.48;;
43857;SDS011;29507;51.284;5.758;2023-07-13T14:18:56;2.55;;;1.48;;
43857;SDS011;29507;51.284;5.758;2023-07-13T14:21:25;4.53;;;1.38;;
43857;SDS011;29507;51.284;5.758;2023-07-13T14:23:52;7.05;;;1.55;;
43857;SDS011;29507;51.284;5.758;2023-07-13T14:26:22;4.60;;;1.70;;
43857;SDS011;29507;51.284;5.758;2023-07-13T14:28:51;4.18;;;1.80;;
43857;SDS011;29507;51.284;5.758;2023-07-13T14:31:18;5.70;;;1.93;;
43857;SDS011;29507;51.284;5.758;2023-07-13T14:33:44;4.18;;;1.40;;
43857;SDS011;29507;51.284;5.758;2023-07-13T14:38:57;3.35;;;1.13;;
43857;SDS011;29507;51.284;5.758;2023-07-13T14:41:25;3.63;;;1.27;;
43857;SDS011;29507;51.284;5.758;2023-07-13T14:43:51;4.00;;;1.27;;
43857;SDS011;29507;51.284;5.758;2023-07-13T14:48:49;3.75;;;1.20;;
43857;SDS011;29507;51.284;5.758;2023-07-13T14:51:15;2.85;;;1.30;;
43857;SDS011;29507;51.284;5.758;2023-07-13T14:53:41;2.33;;;1.15;;
43857;SDS011;29507;51.284;5.758;2023-07-13T14:56:10;3.00;;;1.27;;
43857;SDS011;29507;51.284;5.758;2023-07-13T14:58:36;3.90;;;1.13;;
43857;SDS011;29507;51.284;5.758;2023-07-13T15:01:07;3.25;;;1.10;;
43857;SDS011;29507;51.284;5.758;2023-07-13T15:03:41;4.78;;;1.10;;
43857;SDS011;29507;51.284;5.758;2023-07-13T15:06:10;2.72;;;1.17;;
43857;SDS011;29507;51.284;5.758;2023-07-13T15:08:38;2.83;;;1.00;;
43857;SDS011;29507;51.284;5.758;2023-07-13T15:11:05;8.40;;;1.30;;
43857;SDS011;29507;51.284;5.758;2023-07-13T15:13:38;3.47;;;1.05;;
43857;SDS011;29507;51.284;5.758;2023-07-13T15:16:05;2.25;;;1.05;;
43857;SDS011;29507;51.284;5.758;2023-07-13T15:18:47;3.58;;;1.20;;
43857;SDS011;29507;51.284;5.758;2023-07-13T15:21:15;6.03;;;1.48;;
43857;SDS011;29507;51.284;5.758;2023-07-13T15:23:45;2.83;;;1.10;;
43857;SDS011;29507;51.284;5.758;2023-07-13T15:26:12;4.38;;;1.55;;
43857;SDS011;29507;51.284;5.758;2023-07-13T15:28:40;2.78;;;1.50;;
43857;SDS011;29507;51.284;5.758;2023-07-13T15:31:25;4.75;;;1.13;;
43857;SDS011;29507;51.284;5.758;2023-07-13T15:33:53;3.25;;;1.10;;
43857;SDS011;29507;51.284;5.758;2023-07-13T15:36:21;2.80;;;0.90;;
43857;SDS011;29507;51.284;5.758;2023-07-13T15:38:47;5.43;;;1.55;;
43857;SDS011;29507;51.284;5.758;2023-07-13T15:43:49;3.55;;;1.20;;
43857;SDS011;29507;51.284;5.758;2023-07-13T15:46:19;2.90;;;1.10;;
43857;SDS011;29507;51.284;5.758;2023-07-13T15:48:48;2.65;;;1.15;;